CheckWX is a tool to help pilots better visualize weather data.  It is not intended as a substitute for an official pre-flight weather briefing.

09:12:57 UTC

GQPP METAR
Nouadhibou International Airport
Nouadhibou, Mauritania
Current

13 mins ago

GQPP 250900Z 30009KT 7000 BKN006 23/21 Q1012 NOSIG
Observed
Aug-25 @ 09:00 UTC
Wind
  • 300° at 9 KTS
Visibility
7,000 meters
Flight Rules
IFR
Cloud Levels
  • Broken at 600' AGL
Temperature
23°C / 73°F
Dewpoint
21°C / 70°F
Humidity
89%
Altimeter
29.88" Hg
Pressure
1011.92 hPa
Previous

1 hour ago

GQPP 250800Z 28007KT 6000 NSC 23/21 Q1011 NOSIG
Observed
Aug-25 @ 08:00 UTC
Wind
  • 280° at 7 KTS
Visibility
6,000 meters
Flight Rules
MVFR
Cloud Levels
  • Clear skies
Temperature
23°C / 73°F
Dewpoint
21°C / 70°F
Humidity
89%
Altimeter
29.85" Hg
Pressure
1010.92 hPa
Previous

5 hours ago

GQPP 250400Z 27005KT 240V300 8000 NSC 22/20 Q1011 NOSIG
Observed
Aug-25 @ 04:00 UTC
Wind
  • 270° at 5 KTS
Visibility
8,000 meters
Flight Rules
MVFR
Cloud Levels
  • Clear skies
Temperature
22°C / 72°F
Dewpoint
20°C / 68°F
Humidity
88%
Altimeter
29.85" Hg
Pressure
1010.92 hPa